createdAt,value
2023-03-27T14:54:06.376Z,5.38
2023-03-27T14:56:55.358Z,4.88
2023-03-27T14:59:36.831Z,4.13
2023-03-27T15:02:35.370Z,3.53
2023-03-27T15:05:13.196Z,3.45
2023-03-27T15:07:47.282Z,4.03
2023-03-27T15:10:24.434Z,3.95
2023-03-27T15:13:10.930Z,4.75
2023-03-27T15:15:47.229Z,4.13
2023-03-27T15:18:25.351Z,2.65
2023-03-27T15:20:54.614Z,2.90
2023-03-27T15:23:34.116Z,3.75
2023-03-27T15:26:07.622Z,1.70
2023-03-27T15:29:02.261Z,2.08
2023-03-27T15:31:31.639Z,1.48
2023-03-27T15:34:16.995Z,2.13
2023-03-27T15:36:47.184Z,2.33
2023-03-27T15:39:22.624Z,5.38
2023-03-27T15:41:53.554Z,8.65
2023-03-27T15:44:24.878Z,2.90
2023-03-27T15:46:58.229Z,5.07
2023-03-27T15:49:38.912Z,4.75
2023-03-27T15:52:31.897Z,6.25
2023-03-27T15:55:01.887Z,2.50
2023-03-27T15:57:29.953Z,3.55
2023-03-27T16:00:08.830Z,2.95
2023-03-27T16:02:41.869Z,4.35
2023-03-27T16:05:17.673Z,2.97
2023-03-27T16:07:48.813Z,2.88
2023-03-27T16:10:34.449Z,2.03
2023-03-27T16:13:04.303Z,2.85
2023-03-27T16:15:38.057Z,1.35
2023-03-27T16:18:30.817Z,2.42
2023-03-27T16:21:16.464Z,2.00
2023-03-27T16:23:44.543Z,1.42
2023-03-27T16:26:18.815Z,2.67
2023-03-27T16:28:46.816Z,4.57
2023-03-27T16:31:19.489Z,4.93
2023-03-27T16:33:47.453Z,5.82
2023-03-27T16:36:20.454Z,6.10
2023-03-27T16:41:16.639Z,8.07
2023-03-27T16:43:45.111Z,8.85
2023-03-27T16:46:22.662Z,9.60
2023-03-27T16:48:52.214Z,11.65
2023-03-27T16:51:21.014Z,13.40
2023-03-27T16:53:48.225Z,11.40
2023-03-27T16:56:16.169Z,13.25
2023-03-27T16:58:43.397Z,10.30
2023-03-27T17:01:11.137Z,9.75
2023-03-27T17:03:38.892Z,7.32
2023-03-27T17:06:09.014Z,7.18
2023-03-27T17:08:37.336Z,8.52
2023-03-27T17:11:10.282Z,8.25
2023-03-27T17:13:40.841Z,13.10
2023-03-27T17:16:09.922Z,9.15
2023-03-27T17:18:37.172Z,5.13
2023-03-27T17:21:04.730Z,5.68
2023-03-27T17:23:31.953Z,7.65
2023-03-27T17:26:04.068Z,6.25
2023-03-27T17:28:31.785Z,10.32
2023-03-27T17:31:04.543Z,4.53
2023-03-27T17:33:33.127Z,5.03
2023-03-27T17:36:00.677Z,4.10
2023-03-27T17:38:28.441Z,6.60
2023-03-27T17:40:55.932Z,4.53
2023-03-27T17:43:23.178Z,2.88
2023-03-27T17:45:51.446Z,4.80
2023-03-27T17:48:18.860Z,2.33
2023-03-27T17:50:54.747Z,5.80
2023-03-27T17:53:29.354Z,4.22
2023-03-27T17:55:57.714Z,2.70
2023-03-27T17:58:29.196Z,2.00
2023-03-27T18:00:56.545Z,1.67
2023-03-27T18:03:24.168Z,2.33
2023-03-27T18:05:51.531Z,2.40
2023-03-27T18:08:20.094Z,1.33
2023-03-27T18:10:50.555Z,1.58
2023-03-27T18:13:18.975Z,1.65
2023-03-27T18:15:46.709Z,2.20
2023-03-27T18:18:13.894Z,1.23
2023-03-27T18:20:41.645Z,1.05
2023-03-27T18:23:08.670Z,3.45
2023-03-27T18:25:38.134Z,0.93
2023-03-27T18:28:05.795Z,1.33
2023-03-27T18:30:32.873Z,1.48
2023-03-27T18:33:00.185Z,1.55
2023-03-27T18:35:27.613Z,1.23
2023-03-27T18:37:54.751Z,0.70
2023-03-27T18:40:22.715Z,2.63
2023-03-27T18:42:50.267Z,1.45
2023-03-27T18:45:18.288Z,1.38
2023-03-27T18:47:45.952Z,1.83
2023-03-27T18:50:14.604Z,2.35
2023-03-27T18:52:42.109Z,1.75
2023-03-27T18:55:11.497Z,1.48
2023-03-27T18:57:38.799Z,1.90
2023-03-27T19:00:15.614Z,0.90
2023-03-27T19:02:43.019Z,0.98
2023-03-27T19:05:11.053Z,1.33
2023-03-27T19:07:45.001Z,1.92
2023-03-27T19:10:13.169Z,1.63
2023-03-27T19:12:40.463Z,3.67
2023-03-27T19:15:19.767Z,2.70
2023-03-27T19:17:53.900Z,1.20
2023-03-27T19:20:47.784Z,1.73
2023-03-27T19:23:23.148Z,3.42
2023-03-27T19:25:52.144Z,2.72
2023-03-27T19:28:20.159Z,1.60
2023-03-27T19:30:48.252Z,0.75
2023-03-27T19:33:15.906Z,1.55
2023-03-27T19:35:42.995Z,1.15
2023-03-27T19:38:12.651Z,1.42
2023-03-27T19:40:39.950Z,1.67
2023-03-27T19:43:07.265Z,2.10
2023-03-27T19:45:34.722Z,2.97
2023-03-27T19:48:01.982Z,2.58
2023-03-27T19:50:29.608Z,2.08
2023-03-27T19:53:14.726Z,2.95
2023-03-27T19:55:43.186Z,2.35
2023-03-27T19:58:12.500Z,1.98
2023-03-27T20:00:39.615Z,3.25
2023-03-27T20:03:10.584Z,2.65
2023-03-27T20:05:39.658Z,4.22
2023-03-27T20:08:06.980Z,4.38
2023-03-27T20:10:34.562Z,5.65
2023-03-27T20:13:01.944Z,4.20
2023-03-27T20:15:30.053Z,5.28
2023-03-27T20:17:57.307Z,5.38
2023-03-27T20:20:24.523Z,3.97
2023-03-27T20:22:57.954Z,4.22
2023-03-27T20:25:25.830Z,2.05
2023-03-27T20:27:53.246Z,1.85
2023-03-27T20:30:20.609Z,2.35
2023-03-27T20:32:49.638Z,3.47
2023-03-27T20:35:24.307Z,3.15
2023-03-27T20:37:58.070Z,3.03
2023-03-27T20:40:30.284Z,2.28
2023-03-27T20:43:06.145Z,2.92
2023-03-27T20:45:33.556Z,5.60
2023-03-27T20:48:03.543Z,4.15
2023-03-27T20:50:32.012Z,3.65
2023-03-27T20:52:59.524Z,9.05
2023-03-27T20:55:33.689Z,20.52
2023-03-27T20:58:06.802Z,11.68
2023-03-27T21:00:34.848Z,6.88
2023-03-27T21:03:02.558Z,5.15
2023-03-27T21:05:32.461Z,3.83
2023-03-27T21:08:00.054Z,4.05
2023-03-27T21:10:27.432Z,2.05
2023-03-27T21:12:57.137Z,4.18
2023-03-27T21:15:24.565Z,2.70
2023-03-27T21:17:51.747Z,4.18
2023-03-27T21:20:19.001Z,4.50
2023-03-27T21:22:46.535Z,3.28
2023-03-27T21:25:13.843Z,4.30
2023-03-27T21:27:41.325Z,2.70
2023-03-27T21:30:10.144Z,2.40
2023-03-27T21:32:37.237Z,3.08
2023-03-27T21:35:04.512Z,3.20
2023-03-27T21:37:32.625Z,5.32
2023-03-27T21:39:59.966Z,3.13
2023-03-27T21:42:27.354Z,2.33
2023-03-27T21:44:56.682Z,4.97
2023-03-27T21:47:31.623Z,2.33
2023-03-27T21:50:01.904Z,2.17
2023-03-27T21:52:29.022Z,5.38
2023-03-27T21:55:02.468Z,2.55
2023-03-27T21:57:30.626Z,4.95
2023-03-27T21:59:58.369Z,2.38
2023-03-27T22:02:25.996Z,2.35
2023-03-27T22:04:53.559Z,5.38
2023-03-27T22:07:21.037Z,2.05
2023-03-27T22:09:48.099Z,4.13
2023-03-27T22:12:16.797Z,3.30
2023-03-27T22:14:43.990Z,4.78
2023-03-27T22:17:11.430Z,3.03
2023-03-27T22:19:38.660Z,3.58
2023-03-27T22:22:05.910Z,3.50
2023-03-27T22:24:33.240Z,3.28
2023-03-27T22:27:00.580Z,3.15
2023-03-27T22:29:27.985Z,3.80
2023-03-27T22:31:55.151Z,2.05
2023-03-27T22:34:22.588Z,3.75
2023-03-27T22:36:49.679Z,3.55
2023-03-27T22:39:17.143Z,1.92
2023-03-27T22:41:44.558Z,2.42
2023-03-27T22:44:11.975Z,3.22
2023-03-27T22:46:39.200Z,2.28
2023-03-27T22:49:06.829Z,2.40
2023-03-27T22:51:34.038Z,4.22
2023-03-27T22:54:01.182Z,4.55
2023-03-27T22:56:28.474Z,5.90
2023-03-27T22:58:55.806Z,5.15
2023-03-27T23:01:23.159Z,5.60
2023-03-27T23:03:50.614Z,4.65
2023-03-27T23:06:20.004Z,4.13
2023-03-27T23:08:49.213Z,5.43
2023-03-27T23:11:17.805Z,4.72
2023-03-27T23:13:45.284Z,4.32
2023-03-27T23:16:15.393Z,4.32
2023-03-27T23:18:42.838Z,4.18
2023-03-27T23:21:11.801Z,5.05
2023-03-27T23:23:40.735Z,3.58
2023-03-27T23:26:08.874Z,4.78
2023-03-27T23:28:38.866Z,4.05
2023-03-27T23:31:10.581Z,6.05
2023-03-27T23:33:40.124Z,8.02
2023-03-27T23:36:09.186Z,9.85
2023-03-27T23:38:37.628Z,5.63
2023-03-27T23:41:06.917Z,5.80
2023-03-27T23:43:35.388Z,4.70
2023-03-27T23:46:04.734Z,3.85
2023-03-27T23:48:32.082Z,4.20
2023-03-27T23:50:59.358Z,3.67
2023-03-27T23:53:28.322Z,3.63
2023-03-27T23:55:57.679Z,4.10
2023-03-27T23:58:29.912Z,7.13
